createdAt,value
2017-09-28T00:01:09.413Z,78.60
2017-09-28T00:03:44.226Z,78.50
2017-09-28T00:06:18.062Z,78.40
2017-09-28T00:08:52.692Z,77.90
2017-09-28T00:11:26.592Z,77.70
2017-09-28T00:14:01.333Z,78.10
2017-09-28T00:16:35.278Z,78.10
2017-09-28T00:19:08.994Z,78.00
2017-09-28T00:21:42.964Z,77.90
2017-09-28T00:24:16.773Z,77.70
2017-09-28T00:26:52.485Z,78.00
2017-09-28T00:29:26.292Z,78.70
2017-09-28T00:32:00.151Z,78.20
2017-09-28T00:34:33.885Z,78.30
2017-09-28T00:37:08.437Z,78.40
2017-09-28T00:39:42.410Z,78.30
2017-09-28T00:42:16.889Z,77.50
2017-09-28T00:44:50.809Z,77.40
2017-09-28T00:47:24.642Z,76.80
2017-09-28T00:49:58.502Z,77.20
2017-09-28T00:52:32.356Z,77.40
2017-09-28T00:55:06.296Z,78.00
2017-09-28T00:57:42.095Z,78.00
2017-09-28T01:00:16.981Z,79.50
2017-09-28T01:02:51.910Z,78.80
2017-09-28T01:05:26.137Z,78.50
2017-09-28T01:08:02.203Z,78.00
2017-09-28T01:10:36.311Z,78.20
2017-09-28T01:13:10.172Z,78.50
2017-09-28T01:15:44.827Z,79.00
2017-09-28T01:18:18.744Z,78.90
2017-09-28T01:20:53.090Z,79.30
2017-09-28T01:23:27.859Z,78.90
2017-09-28T01:26:01.655Z,78.70
2017-09-28T01:28:35.496Z,78.60
2017-09-28T01:31:09.378Z,78.10
2017-09-28T01:33:43.177Z,77.90
2017-09-28T01:36:17.016Z,77.90
2017-09-28T01:38:51.618Z,78.00
2017-09-28T01:41:25.363Z,77.90
2017-09-28T01:43:59.930Z,78.00
2017-09-28T01:46:33.849Z,78.10
2017-09-28T01:49:07.659Z,78.10
2017-09-28T01:51:41.413Z,78.50
2017-09-28T01:54:15.324Z,78.40
2017-09-28T01:56:49.219Z,78.40
2017-09-28T01:59:23.147Z,78.50
2017-09-28T02:01:57.158Z,78.80
2017-09-28T02:04:31.093Z,78.60
2017-09-28T02:07:04.829Z,78.20
2017-09-28T02:09:39.521Z,77.70
2017-09-28T02:12:13.367Z,77.60
2017-09-28T02:14:47.082Z,77.40
2017-09-28T02:17:21.001Z,77.90
2017-09-28T02:19:55.546Z,78.50
2017-09-28T02:22:30.358Z,78.70
2017-09-28T02:25:04.645Z,78.60
2017-09-28T02:27:38.777Z,78.60
2017-09-28T02:30:14.338Z,78.70
2017-09-28T02:32:50.417Z,78.50
2017-09-28T02:35:24.541Z,79.10
2017-09-28T02:37:58.741Z,79.50
2017-09-28T02:40:34.190Z,79.20
2017-09-28T02:43:08.520Z,79.00
2017-09-28T02:45:44.535Z,78.80
2017-09-28T02:48:21.324Z,78.70
2017-09-28T02:50:55.383Z,78.50
2017-09-28T02:53:30.550Z,78.40
2017-09-28T02:56:05.052Z,78.50
2017-09-28T02:58:39.136Z,78.60
2017-09-28T03:01:13.846Z,78.20
2017-09-28T03:03:48.009Z,78.20
2017-09-28T03:06:22.015Z,77.90
2017-09-28T03:08:57.241Z,79.20
2017-09-28T03:11:31.071Z,79.10
2017-09-28T03:14:05.728Z,79.50
2017-09-28T03:16:40.188Z,79.40
2017-09-28T03:19:14.477Z,80.50
2017-09-28T03:21:49.463Z,80.10
2017-09-28T03:24:23.502Z,80.20
2017-09-28T03:26:58.626Z,79.80
2017-09-28T03:29:32.467Z,79.40
2017-09-28T03:32:07.128Z,79.90
2017-09-28T03:34:40.862Z,79.80
2017-09-28T03:37:15.128Z,79.70
2017-09-28T03:39:49.377Z,79.60
2017-09-28T03:42:23.331Z,79.60
2017-09-28T03:44:57.571Z,79.90
2017-09-28T03:47:31.551Z,80.00
2017-09-28T03:50:05.571Z,79.40
2017-09-28T03:52:39.847Z,79.80
2017-09-28T03:55:13.871Z,79.60
2017-09-28T03:57:47.707Z,79.70
2017-09-28T04:00:22.669Z,79.80
2017-09-28T04:02:56.968Z,79.90
2017-09-28T04:05:31.673Z,80.00
2017-09-28T04:08:05.627Z,79.90
2017-09-28T04:10:39.778Z,79.70
2017-09-28T04:13:15.033Z,79.80
2017-09-28T04:15:49.046Z,79.50
2017-09-28T04:18:23.109Z,79.50
2017-09-28T04:20:57.009Z,79.10
2017-09-28T04:23:31.786Z,83.10
2017-09-28T04:26:06.404Z,82.80
2017-09-28T04:28:41.523Z,82.80
2017-09-28T04:31:15.499Z,83.30
2017-09-28T04:33:49.587Z,83.00
2017-09-28T04:36:23.639Z,81.30
2017-09-28T04:38:57.666Z,81.20
2017-09-28T04:41:32.112Z,80.30
2017-09-28T04:44:06.065Z,79.90
2017-09-28T04:46:40.116Z,79.90
2017-09-28T04:49:15.000Z,80.20
2017-09-28T04:51:50.732Z,79.60
2017-09-28T04:54:25.782Z,80.20
2017-09-28T04:57:04.083Z,79.40
2017-09-28T04:59:38.154Z,79.40
2017-09-28T05:02:12.313Z,79.20
2017-09-28T05:04:46.603Z,79.30
2017-09-28T05:07:21.458Z,79.10
2017-09-28T05:09:55.477Z,79.00
2017-09-28T05:12:30.088Z,78.80
2017-09-28T05:15:05.616Z,78.80
2017-09-28T05:17:39.549Z,78.80
2017-09-28T05:20:13.664Z,79.10
2017-09-28T05:22:47.707Z,79.40
2017-09-28T05:25:22.336Z,79.30
2017-09-28T05:27:56.367Z,79.10
2017-09-28T05:30:30.352Z,78.90
2017-09-28T05:33:04.240Z,79.40
2017-09-28T05:35:38.249Z,81.10
2017-09-28T05:38:13.453Z,81.90
2017-09-28T05:40:47.529Z,80.30
2017-09-28T05:43:22.259Z,80.00
2017-09-28T05:45:56.082Z,80.00
2017-09-28T05:48:30.178Z,80.00
2017-09-28T05:51:05.059Z,80.80
2017-09-28T05:53:39.279Z,81.20
2017-09-28T05:56:13.480Z,81.80
2017-09-28T05:58:47.465Z,82.00
2017-09-28T06:01:22.312Z,81.90
2017-09-28T06:03:56.133Z,82.40
2017-09-28T06:06:30.262Z,85.00
2017-09-28T06:09:04.271Z,86.20
2017-09-28T06:11:38.280Z,86.50
2017-09-28T06:14:13.160Z,84.70
2017-09-28T06:16:47.823Z,84.10
2017-09-28T06:19:21.932Z,84.00
2017-09-28T06:21:56.037Z,83.90
2017-09-28T06:24:29.994Z,83.50
2017-09-28T06:27:04.059Z,84.80
2017-09-28T06:29:38.483Z,86.40
2017-09-28T06:32:12.459Z,86.80
2017-09-28T06:34:46.205Z,87.10
2017-09-28T06:37:20.139Z,88.50
2017-09-28T06:39:54.077Z,89.60
2017-09-28T06:42:28.124Z,90.10
2017-09-28T06:45:01.964Z,90.50
2017-09-28T06:47:36.550Z,90.20
2017-09-28T06:50:10.348Z,90.20
2017-09-28T06:52:45.131Z,89.80
2017-09-28T06:55:19.698Z,89.30
2017-09-28T06:57:53.472Z,89.10
2017-09-28T07:00:27.242Z,89.90
2017-09-28T07:03:00.969Z,89.00
2017-09-28T07:05:34.994Z,90.40
2017-09-28T07:08:09.601Z,91.00
2017-09-28T07:10:43.465Z,91.00
2017-09-28T07:13:18.189Z,91.90
2017-09-28T07:15:52.033Z,91.80
2017-09-28T07:18:25.851Z,92.00
2017-09-28T07:20:59.750Z,91.80
2017-09-28T07:23:33.535Z,91.80
2017-09-28T07:26:07.399Z,92.30
2017-09-28T07:28:41.986Z,91.50
2017-09-28T07:31:15.808Z,91.30
2017-09-28T07:33:49.642Z,92.10
2017-09-28T07:36:23.758Z,92.40
2017-09-28T07:38:57.553Z,91.20
2017-09-28T07:41:31.433Z,91.00
2017-09-28T07:44:05.316Z,90.70
2017-09-28T07:46:39.887Z,89.90
2017-09-28T07:49:14.463Z,90.60
2017-09-28T07:51:49.065Z,91.90
2017-09-28T07:54:22.885Z,91.90
2017-09-28T07:56:56.862Z,92.20
2017-09-28T07:59:30.684Z,92.30
2017-09-28T08:02:04.510Z,91.80
2017-09-28T08:04:38.314Z,91.90
2017-09-28T08:07:12.231Z,91.50
2017-09-28T08:09:45.956Z,91.30
2017-09-28T08:12:20.633Z,91.30
2017-09-28T08:14:54.615Z,91.60
2017-09-28T08:17:28.590Z,91.70
2017-09-28T08:20:02.404Z,91.00
2017-09-28T08:22:36.531Z,91.00
2017-09-28T08:25:10.379Z,91.20
2017-09-28T08:27:44.214Z,90.90
2017-09-28T08:30:18.680Z,91.30
2017-09-28T08:32:52.636Z,91.20
2017-09-28T08:35:27.221Z,91.60
2017-09-28T08:38:01.925Z,90.90
2017-09-28T08:40:35.961Z,91.20
2017-09-28T08:43:09.747Z,90.90
2017-09-28T08:45:43.512Z,91.20
2017-09-28T08:48:17.212Z,90.60
2017-09-28T08:50:51.366Z,90.40
2017-09-28T08:53:25.156Z,90.30
2017-09-28T08:55:58.924Z,90.40
2017-09-28T08:58:32.801Z,90.00
2017-09-28T09:01:06.739Z,88.20
2017-09-28T09:03:40.584Z,88.40
2017-09-28T09:06:14.533Z,89.20
2017-09-28T09:08:48.387Z,87.50
2017-09-28T09:11:22.283Z,87.70
2017-09-28T09:13:56.698Z,88.60
2017-09-28T09:16:30.438Z,88.50
2017-09-28T09:19:04.454Z,88.70
2017-09-28T09:21:38.526Z,87.60
2017-09-28T09:24:12.386Z,85.70
2017-09-28T09:26:46.628Z,85.70
2017-09-28T09:29:20.394Z,85.60
2017-09-28T09:31:54.128Z,86.30
2017-09-28T09:34:27.953Z,84.20
2017-09-28T09:37:01.905Z,84.70
2017-09-28T09:39:35.791Z,85.50
2017-09-28T09:42:09.450Z,84.90
2017-09-28T09:44:44.248Z,85.10
2017-09-28T09:47:18.177Z,84.30
2017-09-28T09:49:52.178Z,87.30
2017-09-28T09:52:25.853Z,85.80
2017-09-28T09:54:59.766Z,87.00
2017-09-28T09:57:33.605Z,86.90
2017-09-28T10:00:07.477Z,84.10
2017-09-28T10:02:41.276Z,81.90
2017-09-28T10:05:15.225Z,81.40
2017-09-28T10:08:05.204Z,79.00
2017-09-28T10:10:43.964Z,79.60
2017-09-28T10:13:19.449Z,79.60
2017-09-28T10:16:03.171Z,78.20
2017-09-28T10:18:36.762Z,78.20
2017-09-28T10:21:10.765Z,77.70
2017-09-28T10:23:45.434Z,83.30
2017-09-28T10:26:19.176Z,83.30
2017-09-28T10:28:53.772Z,81.60
2017-09-28T10:31:27.631Z,79.40
2017-09-28T10:34:01.505Z,81.50
2017-09-28T10:36:36.018Z,76.90
2017-09-28T10:39:10.794Z,76.80
2017-09-28T10:41:44.693Z,79.40
2017-09-28T10:44:18.413Z,75.00
2017-09-28T10:46:52.952Z,76.30
2017-09-28T10:49:26.634Z,74.70
2017-09-28T10:52:00.556Z,70.90
2017-09-28T10:54:34.567Z,72.70
2017-09-28T10:57:08.457Z,73.10
2017-09-28T10:59:42.238Z,74.90
2017-09-28T11:02:16.204Z,74.20
2017-09-28T11:04:49.986Z,75.50
2017-09-28T11:07:23.816Z,74.90
2017-09-28T11:09:57.980Z,74.40
2017-09-28T11:12:31.888Z,75.90
2017-09-28T11:15:05.856Z,74.80
2017-09-28T11:17:39.658Z,76.40
2017-09-28T11:20:13.521Z,74.20
2017-09-28T11:22:47.440Z,72.90
2017-09-28T11:25:22.064Z,74.20
2017-09-28T11:27:55.828Z,74.20
2017-09-28T11:30:29.731Z,70.50
2017-09-28T11:33:03.744Z,69.80
2017-09-28T11:35:38.477Z,70.10
2017-09-28T11:38:12.406Z,70.00
2017-09-28T11:40:47.057Z,67.70
2017-09-28T11:43:21.686Z,68.50
2017-09-28T11:45:56.376Z,68.90
2017-09-28T11:48:30.243Z,68.00
2017-09-28T11:51:04.424Z,69.20
2017-09-28T11:53:38.157Z,69.20
2017-09-28T11:56:12.054Z,68.80
2017-09-28T11:58:46.278Z,68.30
2017-09-28T12:01:20.016Z,66.70
2017-09-28T12:03:53.786Z,68.70
2017-09-28T12:06:28.246Z,67.50
2017-09-28T12:09:02.162Z,67.40
2017-09-28T12:11:36.218Z,68.30
2017-09-28T12:14:10.874Z,69.00
2017-09-28T12:16:44.698Z,68.90
2017-09-28T12:19:19.384Z,68.80
2017-09-28T12:21:53.265Z,68.60
2017-09-28T12:24:27.376Z,71.00
2017-09-28T12:27:02.380Z,71.80
2017-09-28T12:29:36.469Z,71.70
2017-09-28T12:32:10.330Z,73.20
2017-09-28T12:34:44.432Z,71.60
2017-09-28T12:37:18.373Z,68.20
2017-09-28T12:39:52.894Z,68.60
2017-09-28T12:42:27.544Z,68.00
2017-09-28T12:45:01.471Z,67.70
2017-09-28T12:47:35.216Z,67.00
2017-09-28T12:50:09.109Z,70.20
2017-09-28T12:52:42.836Z,72.40
2017-09-28T12:55:16.683Z,67.70
2017-09-28T12:57:50.779Z,67.00
2017-09-28T13:00:24.500Z,70.50
2017-09-28T13:02:58.776Z,65.50
2017-09-28T13:05:32.527Z,64.80
2017-09-28T13:08:06.462Z,66.50
2017-09-28T13:10:40.534Z,69.00
2017-09-28T13:13:15.207Z,71.70
2017-09-28T13:15:49.397Z,71.70
2017-09-28T13:18:23.267Z,69.30
2017-09-28T13:20:57.044Z,66.80
2017-09-28T13:23:31.814Z,68.30
2017-09-28T13:26:05.705Z,68.10
2017-09-28T13:28:39.546Z,66.90
2017-09-28T13:31:13.429Z,68.80
2017-09-28T13:33:48.023Z,65.20
2017-09-28T13:36:21.923Z,65.20
2017-09-28T13:38:55.656Z,65.10
2017-09-28T13:41:29.588Z,65.50
2017-09-28T13:44:04.076Z,67.60
2017-09-28T13:46:38.032Z,67.50
2017-09-28T13:49:11.690Z,67.00
2017-09-28T13:51:45.685Z,67.90
2017-09-28T13:54:20.715Z,68.40
2017-09-28T13:56:54.595Z,68.70
2017-09-28T13:59:28.319Z,66.60
2017-09-28T14:02:02.280Z,64.80
2017-09-28T14:04:36.841Z,65.70
2017-09-28T14:07:10.794Z,65.50
2017-09-28T14:09:44.758Z,65.00
2017-09-28T14:12:18.663Z,65.50
2017-09-28T14:14:53.517Z,69.20
2017-09-28T14:17:27.467Z,69.10
2017-09-28T14:20:01.925Z,68.60
2017-09-28T14:22:36.737Z,68.10
2017-09-28T14:25:10.322Z,68.00
2017-09-28T14:27:44.184Z,69.20
2017-09-28T14:30:17.993Z,69.00
2017-09-28T14:32:51.751Z,70.00
2017-09-28T14:35:25.588Z,69.60
2017-09-28T14:37:59.777Z,69.40
2017-09-28T14:40:34.037Z,70.20
2017-09-28T14:43:07.922Z,71.30
2017-09-28T14:45:41.752Z,69.40
2017-09-28T14:48:16.484Z,69.80
2017-09-28T14:50:51.241Z,68.80
2017-09-28T14:53:26.065Z,69.60
2017-09-28T14:55:59.898Z,69.50
2017-09-28T14:58:33.763Z,68.70
2017-09-28T15:01:08.546Z,70.00
2017-09-28T15:03:43.425Z,70.70
2017-09-28T15:06:17.585Z,70.60
2017-09-28T15:08:52.718Z,69.70
2017-09-28T15:11:27.716Z,69.50
2017-09-28T15:14:01.755Z,70.50
2017-09-28T15:16:35.996Z,70.00
2017-09-28T15:19:10.991Z,70.90
2017-09-28T15:21:44.935Z,70.30
2017-09-28T15:24:19.112Z,70.70
2017-09-28T15:26:53.183Z,70.30
2017-09-28T15:29:27.231Z,70.80
2017-09-28T15:32:01.556Z,71.70
2017-09-28T15:34:35.703Z,71.70
2017-09-28T15:37:10.483Z,71.90
2017-09-28T15:39:44.678Z,71.10
2017-09-28T15:42:18.557Z,71.90
2017-09-28T15:44:52.642Z,71.80
2017-09-28T15:47:27.263Z,71.00
2017-09-28T15:50:03.413Z,72.50
2017-09-28T15:52:38.211Z,73.40
2017-09-28T15:55:12.285Z,73.30
2017-09-28T15:57:46.842Z,73.80
2017-09-28T16:00:21.596Z,74.10
2017-09-28T16:02:56.469Z,74.20
2017-09-28T16:05:30.997Z,76.10
2017-09-28T16:08:05.666Z,75.80
2017-09-28T16:10:40.195Z,75.60
2017-09-28T16:13:14.741Z,78.00
2017-09-28T16:15:49.965Z,77.10
2017-09-28T16:18:24.199Z,77.00
2017-09-28T16:20:58.401Z,77.60
2017-09-28T16:23:33.528Z,77.40
2017-09-28T16:26:08.569Z,77.80
2017-09-28T16:28:42.857Z,78.10
2017-09-28T16:31:16.967Z,79.20
2017-09-28T16:33:50.901Z,79.70
2017-09-28T16:36:24.826Z,78.60
2017-09-28T16:38:58.838Z,79.50
2017-09-28T16:41:33.173Z,78.80
2017-09-28T16:44:07.999Z,78.80
2017-09-28T16:46:42.753Z,80.60
2017-09-28T16:49:16.994Z,80.50
2017-09-28T16:51:52.529Z,80.10
2017-09-28T16:54:26.825Z,80.00
2017-09-28T16:57:00.948Z,82.50
2017-09-28T16:59:35.786Z,83.10
2017-09-28T17:02:09.708Z,82.30
2017-09-28T17:04:43.961Z,81.70
2017-09-28T17:07:17.843Z,81.60
2017-09-28T17:09:51.861Z,81.40
2017-09-28T17:12:26.137Z,81.40
2017-09-28T17:15:00.618Z,82.10
2017-09-28T17:17:34.780Z,81.90
2017-09-28T17:20:09.718Z,82.00
2017-09-28T17:22:44.590Z,84.00
2017-09-28T17:25:19.191Z,84.30
2017-09-28T17:27:54.247Z,83.70
2017-09-28T17:30:29.255Z,83.50
2017-09-28T17:33:03.103Z,83.40
2017-09-28T17:35:38.087Z,83.90
2017-09-28T17:38:12.209Z,83.80
2017-09-28T17:40:46.207Z,85.10
2017-09-28T17:43:20.201Z,84.40
2017-09-28T17:45:54.228Z,84.30
2017-09-28T17:48:29.776Z,85.10
2017-09-28T17:51:03.806Z,84.30
2017-09-28T17:53:38.010Z,84.40
2017-09-28T17:56:12.146Z,84.10
2017-09-28T17:58:46.983Z,85.50
2017-09-28T18:01:21.037Z,85.40
2017-09-28T18:03:54.844Z,87.30
2017-09-28T18:06:29.025Z,88.30
2017-09-28T18:09:03.200Z,88.30
2017-09-28T18:11:37.777Z,87.90
2017-09-28T18:14:12.621Z,87.10
2017-09-28T18:16:46.484Z,87.00
2017-09-28T18:19:20.677Z,85.80
2017-09-28T18:21:54.668Z,85.20
2017-09-28T18:24:28.724Z,84.90
2017-09-28T18:27:03.537Z,84.70
2017-09-28T18:29:37.543Z,84.60
2017-09-28T18:32:12.617Z,84.40
2017-09-28T18:34:46.562Z,84.50
2017-09-28T18:37:21.360Z,84.50
2017-09-28T18:39:55.794Z,84.20
2017-09-28T18:42:30.662Z,84.60
2017-09-28T18:45:05.522Z,84.60
2017-09-28T18:47:39.361Z,84.50
2017-09-28T18:50:14.170Z,84.50
2017-09-28T18:52:47.973Z,84.40
2017-09-28T18:55:22.522Z,84.40
2017-09-28T18:57:56.147Z,84.30
2017-09-28T19:00:29.769Z,84.50
2017-09-28T19:03:03.540Z,84.30
2017-09-28T19:05:37.378Z,84.40
2017-09-28T19:08:11.167Z,84.10
2017-09-28T19:10:44.948Z,84.10
2017-09-28T19:13:18.636Z,83.70
2017-09-28T19:15:52.430Z,83.30
2017-09-28T19:18:26.154Z,83.30
2017-09-28T19:20:59.958Z,83.30
2017-09-28T19:23:33.797Z,83.30
2017-09-28T19:26:07.589Z,83.30
2017-09-28T19:28:41.323Z,83.10
2017-09-28T19:31:15.222Z,83.00
2017-09-28T19:33:48.917Z,83.60
2017-09-28T19:36:22.726Z,83.60
2017-09-28T19:38:56.525Z,83.30
2017-09-28T19:41:30.397Z,83.30
2017-09-28T19:44:04.142Z,82.80
2017-09-28T19:46:37.780Z,83.00
2017-09-28T19:49:12.185Z,83.00
2017-09-28T19:51:45.876Z,82.90
2017-09-28T19:54:19.398Z,82.70
2017-09-28T19:56:52.950Z,82.80
2017-09-28T19:59:26.938Z,82.70
2017-09-28T20:02:00.538Z,82.20
2017-09-28T20:04:34.217Z,82.60
2017-09-28T20:07:07.870Z,81.80
2017-09-28T20:09:41.648Z,81.80
2017-09-28T20:12:15.335Z,82.10
2017-09-28T20:14:48.902Z,82.00
2017-09-28T20:17:22.513Z,82.20
2017-09-28T20:19:56.213Z,82.30
2017-09-28T20:22:29.829Z,82.10
2017-09-28T20:25:03.383Z,82.00
2017-09-28T20:27:37.016Z,81.90
2017-09-28T20:30:10.708Z,82.00
2017-09-28T20:32:44.310Z,81.90
2017-09-28T20:35:18.610Z,82.40
2017-09-28T20:37:52.210Z,81.60
2017-09-28T20:40:25.708Z,81.50
2017-09-28T20:42:59.457Z,81.30
2017-09-28T20:45:32.988Z,81.30
2017-09-28T20:48:06.757Z,81.20
2017-09-28T20:50:40.492Z,80.70
2017-09-28T20:53:14.163Z,80.70
2017-09-28T20:55:47.706Z,80.40
2017-09-28T20:58:21.267Z,79.90
2017-09-28T21:00:54.810Z,79.70
2017-09-28T21:03:28.384Z,79.70
2017-09-28T21:06:01.917Z,79.80
2017-09-28T21:08:35.441Z,80.00
2017-09-28T21:11:09.785Z,80.30
2017-09-28T21:13:43.482Z,80.20
2017-09-28T21:16:17.037Z,80.30
2017-09-28T21:18:50.657Z,80.30
2017-09-28T21:21:24.372Z,80.20
2017-09-28T21:23:58.768Z,80.40
2017-09-28T21:26:32.325Z,80.20
2017-09-28T21:29:05.997Z,80.40
2017-09-28T21:31:40.277Z,80.90
2017-09-28T21:34:14.004Z,80.80
2017-09-28T21:36:47.569Z,81.10
2017-09-28T21:39:21.865Z,81.20
2017-09-28T21:41:55.408Z,81.20
2017-09-28T21:44:29.719Z,81.70
2017-09-28T21:47:03.433Z,81.60
2017-09-28T21:49:37.019Z,81.60
2017-09-28T21:52:10.592Z,81.50
2017-09-28T21:54:44.165Z,81.80
2017-09-28T21:57:20.189Z,81.80
2017-09-28T21:59:53.801Z,81.80
2017-09-28T22:02:27.361Z,81.40
2017-09-28T22:05:00.964Z,81.00
2017-09-28T22:07:34.549Z,80.70
2017-09-28T22:10:08.109Z,81.00
2017-09-28T22:12:41.614Z,81.00
2017-09-28T22:15:15.171Z,80.30
2017-09-28T22:17:48.767Z,80.30
2017-09-28T22:20:22.349Z,80.00
2017-09-28T22:22:56.699Z,80.10
2017-09-28T22:25:30.374Z,80.00
2017-09-28T22:28:03.987Z,80.00
2017-09-28T22:30:37.597Z,80.10
2017-09-28T22:33:11.195Z,80.20
2017-09-28T22:35:45.532Z,79.90
2017-09-28T22:38:19.173Z,79.80
2017-09-28T22:40:52.854Z,79.70
2017-09-28T22:43:26.385Z,79.90
2017-09-28T22:46:00.077Z,80.10
2017-09-28T22:48:33.717Z,80.40
2017-09-28T22:51:07.249Z,80.10
2017-09-28T22:53:40.909Z,79.90
2017-09-28T22:56:14.457Z,79.70
2017-09-28T22:58:47.992Z,79.50
2017-09-28T23:01:22.068Z,79.10
2017-09-28T23:03:55.741Z,79.20
2017-09-28T23:06:29.328Z,79.20
2017-09-28T23:09:03.612Z,80.10
2017-09-28T23:11:37.361Z,79.20
2017-09-28T23:14:10.947Z,79.60
2017-09-28T23:16:44.561Z,80.20
2017-09-28T23:19:18.280Z,80.00
2017-09-28T23:21:52.188Z,80.20
2017-09-28T23:24:26.539Z,79.90
2017-09-28T23:27:01.398Z,79.70
2017-09-28T23:29:35.819Z,79.60
2017-09-28T23:32:10.530Z,79.80
2017-09-28T23:34:45.150Z,79.70
2017-09-28T23:37:19.350Z,79.90
2017-09-28T23:39:54.050Z,80.30
2017-09-28T23:42:27.942Z,80.20
2017-09-28T23:45:02.722Z,80.10
2017-09-28T23:47:36.829Z,80.10
2017-09-28T23:50:11.276Z,81.30
2017-09-28T23:52:45.451Z,81.20
2017-09-28T23:55:20.134Z,80.40
2017-09-28T23:57:53.935Z,80.00
